createdAt,value
2022-07-25T00:00:30.597Z,14.90
2022-07-25T00:02:58.692Z,14.90
2022-07-25T00:05:28.615Z,14.90
2022-07-25T00:07:56.743Z,14.90
2022-07-25T00:10:25.242Z,14.90
2022-07-25T00:12:53.189Z,14.90
2022-07-25T00:15:21.216Z,14.90
2022-07-25T00:17:49.223Z,14.80
2022-07-25T00:20:17.184Z,15.00
2022-07-25T00:22:46.696Z,14.90
2022-07-25T00:25:14.934Z,14.80
2022-07-25T00:27:43.004Z,14.70
2022-07-25T00:30:11.883Z,14.80
2022-07-25T00:32:39.926Z,14.80
2022-07-25T00:35:08.264Z,14.80
2022-07-25T00:37:36.615Z,14.70
2022-07-25T00:40:06.729Z,14.70
2022-07-25T00:42:34.964Z,14.70
2022-07-25T00:45:03.034Z,14.70
2022-07-25T00:47:31.475Z,14.70
2022-07-25T00:49:59.914Z,14.60
2022-07-25T00:52:28.101Z,14.60
2022-07-25T00:54:57.001Z,14.60
2022-07-25T00:57:26.521Z,14.60
2022-07-25T00:59:54.542Z,14.50
2022-07-25T01:02:22.612Z,14.50
2022-07-25T01:04:50.626Z,14.50
2022-07-25T01:07:19.264Z,14.50
2022-07-25T01:09:47.851Z,14.50
2022-07-25T01:12:15.945Z,14.50
2022-07-25T01:14:45.547Z,14.50
2022-07-25T01:17:13.852Z,14.50
2022-07-25T01:19:42.139Z,14.50
2022-07-25T01:22:11.581Z,14.40
2022-07-25T01:24:40.817Z,14.40
2022-07-25T01:27:08.949Z,14.40
2022-07-25T01:29:45.386Z,14.40
2022-07-25T01:32:13.704Z,14.30
2022-07-25T01:34:41.712Z,14.30
2022-07-25T01:37:11.293Z,14.30
2022-07-25T01:39:39.383Z,14.30
2022-07-25T01:42:08.116Z,14.40
2022-07-25T01:44:36.111Z,14.20
2022-07-25T01:47:04.296Z,14.20
2022-07-25T01:49:32.539Z,14.20
2022-07-25T01:52:01.428Z,14.10
2022-07-25T01:54:30.951Z,14.10
2022-07-25T01:57:00.193Z,14.10
2022-07-25T01:59:29.139Z,14.10
2022-07-25T02:01:57.277Z,14.10
2022-07-25T02:04:25.483Z,14.00
2022-07-25T02:06:53.626Z,13.90
2022-07-25T02:09:21.708Z,13.90
2022-07-25T02:11:51.179Z,13.90
2022-07-25T02:14:19.147Z,13.90
2022-07-25T02:16:47.211Z,13.80
2022-07-25T02:19:15.291Z,13.80
2022-07-25T02:21:44.306Z,13.80
2022-07-25T02:24:12.919Z,13.80
2022-07-25T02:26:40.939Z,13.70
2022-07-25T02:29:10.336Z,13.70
2022-07-25T02:31:38.608Z,13.70
2022-07-25T02:34:07.138Z,13.70
2022-07-25T02:36:35.434Z,13.70
2022-07-25T02:39:04.731Z,13.60
2022-07-25T02:41:32.823Z,13.60
2022-07-25T02:44:00.761Z,13.60
2022-07-25T02:46:30.391Z,13.60
2022-07-25T02:48:59.145Z,13.50
2022-07-25T02:51:27.563Z,13.50
2022-07-25T02:53:57.708Z,13.50
2022-07-25T02:56:29.641Z,13.50
2022-07-25T02:58:58.475Z,13.40
2022-07-25T03:01:27.123Z,13.40
2022-07-25T03:03:56.693Z,13.40
2022-07-25T03:06:24.765Z,13.30
2022-07-25T03:08:52.940Z,13.40
2022-07-25T03:11:22.283Z,13.30
2022-07-25T03:13:50.446Z,13.30
2022-07-25T03:16:18.549Z,13.30
2022-07-25T03:18:47.067Z,13.30
2022-07-25T03:21:16.597Z,13.30
2022-07-25T03:23:49.054Z,13.30
2022-07-25T03:26:20.070Z,13.30
2022-07-25T03:28:48.053Z,13.30
2022-07-25T03:31:16.189Z,13.30
2022-07-25T03:33:44.169Z,13.30
2022-07-25T03:36:12.544Z,13.30
2022-07-25T03:38:41.980Z,13.30
2022-07-25T03:41:09.974Z,13.30
2022-07-25T03:43:38.534Z,13.30
2022-07-25T03:46:06.831Z,13.20
2022-07-25T03:48:35.027Z,13.30
2022-07-25T03:51:06.846Z,13.20
2022-07-25T03:53:55.510Z,13.30
2022-07-25T03:56:24.984Z,13.30
2022-07-25T03:58:53.090Z,13.30
2022-07-25T04:01:21.962Z,13.20
2022-07-25T04:03:50.183Z,13.30
2022-07-25T04:06:18.767Z,13.30
2022-07-25T04:08:46.853Z,13.30
2022-07-25T04:11:14.953Z,13.30
2022-07-25T04:13:44.557Z,13.40
2022-07-25T04:16:16.867Z,13.30
2022-07-25T04:18:51.689Z,13.40
2022-07-25T04:21:19.880Z,13.40
2022-07-25T04:23:48.023Z,13.50
2022-07-25T04:26:16.562Z,13.50
2022-07-25T04:28:46.142Z,13.60
2022-07-25T04:31:14.171Z,13.70
2022-07-25T04:33:42.869Z,13.80
2022-07-25T04:36:11.505Z,13.80
2022-07-25T04:38:39.660Z,13.90
2022-07-25T04:41:07.801Z,14.10
2022-07-25T04:43:35.922Z,14.20
2022-07-25T04:46:05.397Z,14.30
2022-07-25T04:48:33.616Z,14.50
2022-07-25T04:51:01.719Z,14.70
2022-07-25T04:53:29.946Z,14.80
2022-07-25T04:55:58.058Z,15.00
2022-07-25T04:58:26.235Z,15.30
2022-07-25T05:00:54.389Z,15.40
2022-07-25T05:03:23.868Z,15.60
2022-07-25T05:05:51.970Z,15.90
2022-07-25T05:08:19.989Z,16.10
2022-07-25T05:10:48.040Z,16.30
2022-07-25T05:13:16.400Z,16.50
2022-07-25T05:15:44.487Z,16.80
2022-07-25T05:18:12.450Z,17.00
2022-07-25T05:20:42.457Z,17.30
2022-07-25T05:23:10.529Z,17.60
2022-07-25T05:25:38.637Z,17.90
2022-07-25T05:28:06.771Z,18.30
2022-07-25T05:30:39.611Z,18.70
2022-07-25T05:33:07.967Z,19.00
2022-07-25T05:35:36.269Z,19.40
2022-07-25T05:38:06.598Z,19.50
2022-07-25T05:40:34.711Z,19.70
2022-07-25T05:43:03.709Z,20.00
2022-07-25T05:45:32.683Z,20.20
2022-07-25T05:48:01.002Z,20.50
2022-07-25T05:50:29.267Z,20.90
2022-07-25T05:52:57.322Z,21.30
2022-07-25T05:55:26.535Z,21.70
2022-07-25T05:57:54.666Z,21.90
2022-07-25T06:00:22.549Z,22.10
2022-07-25T06:02:50.954Z,22.40
2022-07-25T06:05:19.088Z,22.80
2022-07-25T06:07:47.130Z,23.20
2022-07-25T06:10:15.060Z,23.30
2022-07-25T06:12:44.698Z,23.40
2022-07-25T06:15:22.165Z,23.40
2022-07-25T06:17:54.803Z,23.30
2022-07-25T06:20:23.210Z,23.30
2022-07-25T06:22:51.227Z,23.30
2022-07-25T06:25:19.646Z,23.40
2022-07-25T06:27:49.029Z,23.40
2022-07-25T06:30:20.205Z,23.40
2022-07-25T06:32:48.844Z,23.60
2022-07-25T06:35:18.240Z,23.60
2022-07-25T06:37:46.414Z,23.80
2022-07-25T06:40:14.850Z,24.10
2022-07-25T06:42:45.713Z,24.20
2022-07-25T06:45:16.611Z,24.40
2022-07-25T06:47:45.972Z,24.50
2022-07-25T06:50:16.312Z,24.50
2022-07-25T06:52:44.664Z,24.70
2022-07-25T06:55:13.933Z,24.90
2022-07-25T06:57:42.194Z,25.00
2022-07-25T07:00:12.416Z,25.20
2022-07-25T07:02:56.442Z,25.30
2022-07-25T07:05:27.908Z,25.50
2022-07-25T07:07:56.082Z,25.70
2022-07-25T07:10:24.871Z,25.90
2022-07-25T07:13:03.551Z,26.10
2022-07-25T07:15:33.825Z,26.20
2022-07-25T07:18:03.140Z,26.20
2022-07-25T07:20:31.725Z,26.40
2022-07-25T07:22:59.772Z,26.40
2022-07-25T07:25:28.548Z,26.60
2022-07-25T07:27:56.598Z,26.70
2022-07-25T07:30:37.604Z,26.70
2022-07-25T07:33:14.057Z,26.70
2022-07-25T07:35:44.607Z,26.90
2022-07-25T07:38:12.948Z,27.00
2022-07-25T07:40:40.929Z,27.20
2022-07-25T07:43:09.075Z,27.30
2022-07-25T07:45:37.093Z,27.40
2022-07-25T07:48:05.410Z,27.50
2022-07-25T07:50:35.258Z,27.60
2022-07-25T07:53:03.718Z,27.80
2022-07-25T07:55:48.208Z,27.80
2022-07-25T07:58:17.991Z,27.90
2022-07-25T08:00:47.815Z,28.00
2022-07-25T08:03:20.520Z,28.20
2022-07-25T08:05:51.958Z,28.40
2022-07-25T08:08:20.377Z,28.60
2022-07-25T08:10:49.624Z,28.70
2022-07-25T08:13:19.804Z,29.00
2022-07-25T08:15:49.678Z,29.10
2022-07-25T08:18:18.958Z,29.20
2022-07-25T08:20:47.213Z,29.50
2022-07-25T08:23:16.908Z,29.60
2022-07-25T08:25:45.384Z,29.60
2022-07-25T08:28:13.795Z,29.80
2022-07-25T08:30:42.480Z,30.00
2022-07-25T08:33:13.607Z,30.10
2022-07-25T08:35:42.176Z,30.30
2022-07-25T08:38:11.796Z,30.30
2022-07-25T08:40:41.493Z,30.40
2022-07-25T08:43:13.100Z,30.50
2022-07-25T08:45:45.266Z,30.70
2022-07-25T08:48:13.434Z,30.80
2022-07-25T08:50:42.128Z,30.80
2022-07-25T08:53:32.064Z,31.00
2022-07-25T08:55:59.984Z,31.20
2022-07-25T08:58:27.900Z,31.30
2022-07-25T09:00:56.034Z,31.30
2022-07-25T09:03:24.365Z,31.50
2022-07-25T09:05:52.636Z,31.60
2022-07-25T09:08:20.790Z,31.80
2022-07-25T09:10:51.108Z,31.90
2022-07-25T09:13:22.330Z,32.00
2022-07-25T09:15:51.826Z,32.00
2022-07-25T09:18:23.790Z,31.90
2022-07-25T09:20:53.591Z,31.80
2022-07-25T09:23:30.979Z,31.90
2022-07-25T09:26:06.285Z,31.90
2022-07-25T09:28:42.365Z,31.90
2022-07-25T09:31:11.183Z,32.00
2022-07-25T09:33:47.971Z,32.10
2022-07-25T09:36:17.012Z,32.10
2022-07-25T09:38:53.475Z,32.20
2022-07-25T09:41:21.561Z,32.30
2022-07-25T09:43:50.990Z,32.40
2022-07-25T09:46:19.133Z,32.30
2022-07-25T09:48:57.449Z,32.30
2022-07-25T09:51:26.412Z,32.20
2022-07-25T09:53:54.634Z,32.00
2022-07-25T09:56:22.605Z,32.00
2022-07-25T09:58:52.928Z,32.00
2022-07-25T10:01:29.203Z,32.00
2022-07-25T10:04:09.418Z,32.10
2022-07-25T10:06:46.640Z,32.20
2022-07-25T10:09:15.122Z,32.30
2022-07-25T10:12:03.539Z,32.40
2022-07-25T10:14:33.782Z,32.40
2022-07-25T10:17:02.159Z,32.40
2022-07-25T10:19:50.210Z,32.40
2022-07-25T10:22:34.390Z,32.40
2022-07-25T10:25:16.502Z,32.50
2022-07-25T10:27:48.887Z,32.60
2022-07-25T10:30:26.712Z,32.60
2022-07-25T10:32:59.245Z,32.60
2022-07-25T10:35:28.175Z,32.70
2022-07-25T10:37:57.713Z,32.60
2022-07-25T10:40:36.769Z,32.70
2022-07-25T10:43:09.902Z,32.60
2022-07-25T10:45:50.479Z,32.60
2022-07-25T10:48:25.007Z,32.70
2022-07-25T10:50:59.751Z,32.70
2022-07-25T10:53:36.251Z,32.70
2022-07-25T10:56:07.295Z,32.70
2022-07-25T10:58:50.977Z,32.90
2022-07-25T11:01:26.095Z,32.90
2022-07-25T11:03:55.751Z,32.90
2022-07-25T11:06:36.389Z,32.90
2022-07-25T11:09:06.171Z,32.90
2022-07-25T11:11:36.700Z,32.80
2022-07-25T11:14:05.857Z,32.70
2022-07-25T11:16:35.233Z,32.80
2022-07-25T11:19:03.727Z,33.00
2022-07-25T11:21:32.127Z,33.20
2022-07-25T11:23:59.988Z,33.30
2022-07-25T11:26:27.997Z,33.20
2022-07-25T11:28:56.063Z,33.20
2022-07-25T11:31:24.065Z,33.00
2022-07-25T11:33:53.704Z,33.00
2022-07-25T11:36:21.723Z,33.00
2022-07-25T11:38:50.561Z,33.20
2022-07-25T11:41:29.492Z,33.30
2022-07-25T11:43:58.004Z,33.50
2022-07-25T11:46:26.152Z,33.60
2022-07-25T11:49:06.490Z,33.50
2022-07-25T11:51:38.515Z,33.40
2022-07-25T11:54:10.490Z,33.30
2022-07-25T11:56:42.934Z,33.30
2022-07-25T11:59:12.202Z,33.30
2022-07-25T12:01:42.228Z,33.50
2022-07-25T12:04:16.618Z,33.50
2022-07-25T12:06:46.297Z,33.50
2022-07-25T12:09:19.048Z,33.50
2022-07-25T12:11:50.080Z,33.50
2022-07-25T12:14:18.666Z,33.60
2022-07-25T12:16:46.907Z,33.70
2022-07-25T12:19:23.371Z,33.70
2022-07-25T12:21:51.469Z,33.80
2022-07-25T12:24:19.514Z,34.00
2022-07-25T12:26:47.420Z,34.00
2022-07-25T12:29:15.423Z,34.10
2022-07-25T12:31:43.356Z,34.20
2022-07-25T12:34:11.322Z,34.40
2022-07-25T12:36:44.220Z,34.60
2022-07-25T12:39:13.057Z,34.70
2022-07-25T12:41:42.815Z,34.80
2022-07-25T12:44:11.269Z,34.90
2022-07-25T12:46:45.836Z,34.90
2022-07-25T12:49:17.319Z,35.00
2022-07-25T12:51:46.911Z,35.10
2022-07-25T12:54:21.642Z,35.20
2022-07-25T12:56:50.328Z,35.50
2022-07-25T12:59:18.284Z,35.60
2022-07-25T13:01:46.614Z,35.70
2022-07-25T13:04:15.098Z,35.70
2022-07-25T13:06:43.282Z,35.70
2022-07-25T13:09:13.160Z,35.60
2022-07-25T13:11:42.406Z,35.50
2022-07-25T13:14:10.873Z,35.40
2022-07-25T13:16:39.148Z,35.30
2022-07-25T13:19:08.974Z,35.30
2022-07-25T13:21:37.919Z,35.10
2022-07-25T13:24:07.666Z,35.00
2022-07-25T13:26:38.637Z,34.90
2022-07-25T13:29:08.674Z,34.80
2022-07-25T13:31:38.488Z,34.70
2022-07-25T13:34:07.486Z,34.60
2022-07-25T13:36:36.543Z,34.80
2022-07-25T13:39:05.879Z,35.00
2022-07-25T13:41:34.503Z,35.10
2022-07-25T13:44:04.152Z,35.30
2022-07-25T13:46:33.331Z,35.60
2022-07-25T13:49:01.684Z,35.90
2022-07-25T13:51:29.937Z,36.00
2022-07-25T13:53:57.978Z,36.00
2022-07-25T13:56:26.260Z,36.20
2022-07-25T13:58:54.363Z,36.10
2022-07-25T14:01:23.939Z,35.90
2022-07-25T14:03:51.997Z,36.00
2022-07-25T14:06:20.159Z,36.00
2022-07-25T14:08:48.131Z,36.10
2022-07-25T14:11:16.035Z,36.10
2022-07-25T14:13:45.324Z,36.30
2022-07-25T14:16:16.553Z,36.40
2022-07-25T14:18:46.260Z,36.40
2022-07-25T14:21:14.230Z,35.90
2022-07-25T14:23:42.367Z,35.90
2022-07-25T14:26:10.442Z,35.90
2022-07-25T14:28:38.329Z,35.80
2022-07-25T14:31:06.410Z,35.60
2022-07-25T14:33:37.945Z,35.50
2022-07-25T14:36:08.556Z,35.20
2022-07-25T14:38:36.819Z,34.90
2022-07-25T14:41:09.206Z,34.60
2022-07-25T14:43:40.779Z,34.40
2022-07-25T14:46:09.134Z,34.20
2022-07-25T14:48:38.164Z,34.10
2022-07-25T14:51:08.363Z,33.90
2022-07-25T14:53:36.578Z,33.70
2022-07-25T14:56:05.918Z,33.60
2022-07-25T14:58:35.028Z,33.40
2022-07-25T15:01:03.076Z,33.40
2022-07-25T15:03:31.113Z,33.30
2022-07-25T15:05:59.257Z,33.30
2022-07-25T15:08:29.233Z,33.30
2022-07-25T15:10:57.216Z,33.40
2022-07-25T15:13:32.857Z,33.50
2022-07-25T15:16:01.760Z,33.60
2022-07-25T15:18:30.269Z,33.50
2022-07-25T15:20:58.933Z,33.70
2022-07-25T15:23:30.476Z,33.60
2022-07-25T15:26:02.318Z,33.50
2022-07-25T15:28:32.082Z,33.50
2022-07-25T15:31:00.352Z,33.50
2022-07-25T15:33:28.403Z,33.50
2022-07-25T15:35:56.518Z,33.50
2022-07-25T15:38:24.996Z,33.70
2022-07-25T15:40:54.415Z,33.90
2022-07-25T15:43:22.382Z,34.10
2022-07-25T15:45:50.563Z,34.40
2022-07-25T15:48:19.280Z,34.60
2022-07-25T15:50:51.721Z,34.80
2022-07-25T15:53:20.208Z,34.90
2022-07-25T15:55:48.612Z,35.00
2022-07-25T15:58:18.409Z,34.80
2022-07-25T16:00:46.648Z,34.60
2022-07-25T16:03:15.012Z,34.50
2022-07-25T16:05:44.891Z,34.40
2022-07-25T16:08:12.924Z,34.20
2022-07-25T16:10:40.860Z,33.90
2022-07-25T16:13:08.831Z,33.80
2022-07-25T16:15:38.220Z,33.60
2022-07-25T16:18:06.650Z,33.70
2022-07-25T16:20:34.705Z,33.50
2022-07-25T16:23:03.038Z,33.40
2022-07-25T16:25:31.637Z,33.30
2022-07-25T16:28:00.634Z,33.10
2022-07-25T16:30:29.866Z,32.90
2022-07-25T16:32:59.408Z,32.90
2022-07-25T16:35:27.439Z,32.60
2022-07-25T16:37:55.439Z,32.50
2022-07-25T16:40:27.349Z,32.40
2022-07-25T16:42:59.807Z,32.30
2022-07-25T16:45:28.591Z,31.90
2022-07-25T16:47:57.910Z,31.70
2022-07-25T16:50:26.027Z,31.40
2022-07-25T16:52:54.975Z,31.00
2022-07-25T16:55:22.993Z,30.80
2022-07-25T16:57:50.893Z,30.60
2022-07-25T17:00:20.186Z,30.40
2022-07-25T17:02:48.180Z,30.20
2022-07-25T17:05:17.755Z,29.90
2022-07-25T17:07:59.299Z,29.70
2022-07-25T17:10:32.363Z,29.40
2022-07-25T17:13:00.477Z,29.00
2022-07-25T17:15:28.566Z,28.60
2022-07-25T17:17:56.756Z,28.20
2022-07-25T17:20:26.493Z,28.00
2022-07-25T17:22:54.706Z,27.70
2022-07-25T17:25:22.680Z,27.30
2022-07-25T17:27:50.854Z,27.10
2022-07-25T17:30:18.917Z,26.90
2022-07-25T17:32:47.206Z,26.70
2022-07-25T17:35:15.307Z,26.60
2022-07-25T17:37:44.851Z,26.30
2022-07-25T17:40:13.275Z,26.10
2022-07-25T17:42:45.036Z,26.00
2022-07-25T17:45:13.490Z,25.80
2022-07-25T17:47:41.615Z,25.50
2022-07-25T17:50:10.713Z,25.30
2022-07-25T17:52:38.871Z,25.10
2022-07-25T17:55:09.042Z,24.90
2022-07-25T17:57:37.928Z,24.70
2022-07-25T18:00:07.046Z,24.60
2022-07-25T18:02:35.180Z,24.40
2022-07-25T18:05:03.726Z,24.40
2022-07-25T18:07:33.326Z,24.20
2022-07-25T18:10:02.101Z,24.20
2022-07-25T18:12:39.353Z,24.20
2022-07-25T18:15:13.084Z,24.10
2022-07-25T18:17:42.821Z,24.00
2022-07-25T18:20:11.993Z,23.90
2022-07-25T18:22:41.181Z,23.80
2022-07-25T18:25:11.290Z,23.70
2022-07-25T18:27:42.251Z,23.60
2022-07-25T18:30:11.665Z,23.60
2022-07-25T18:32:40.624Z,23.50
2022-07-25T18:35:13.531Z,23.40
2022-07-25T18:37:50.844Z,23.30
2022-07-25T18:40:19.688Z,23.30
2022-07-25T18:42:49.382Z,23.30
2022-07-25T18:45:17.551Z,23.20
2022-07-25T18:47:46.843Z,23.20
2022-07-25T18:50:15.140Z,23.20
2022-07-25T18:52:43.216Z,23.10
2022-07-25T18:55:11.603Z,23.10
2022-07-25T18:57:39.764Z,23.10
2022-07-25T19:00:10.907Z,23.00
2022-07-25T19:02:39.118Z,23.00
2022-07-25T19:05:08.657Z,22.90
2022-07-25T19:07:37.102Z,22.90
2022-07-25T19:10:05.939Z,22.80
2022-07-25T19:12:34.164Z,22.70
2022-07-25T19:15:02.159Z,22.60
2022-07-25T19:17:32.847Z,22.60
2022-07-25T19:20:02.117Z,22.70
2022-07-25T19:22:30.099Z,22.40
2022-07-25T19:24:58.203Z,22.40
2022-07-25T19:27:27.368Z,22.30
2022-07-25T19:29:57.138Z,22.30
2022-07-25T19:32:26.267Z,22.20
2022-07-25T19:34:55.767Z,22.10
2022-07-25T19:37:24.099Z,22.20
2022-07-25T19:39:53.297Z,22.10
2022-07-25T19:42:21.836Z,22.10
2022-07-25T19:45:04.337Z,22.00
2022-07-25T19:47:32.937Z,22.00
2022-07-25T19:50:21.390Z,21.90
2022-07-25T19:52:49.662Z,21.80
2022-07-25T19:55:17.977Z,21.80
2022-07-25T19:57:46.137Z,21.70
2022-07-25T20:00:15.086Z,21.70
2022-07-25T20:02:44.932Z,21.60
2022-07-25T20:05:14.657Z,21.50
2022-07-25T20:07:42.762Z,21.50
2022-07-25T20:10:11.404Z,21.40
2022-07-25T20:12:41.247Z,21.50
2022-07-25T20:15:09.495Z,21.60
2022-07-25T20:17:37.539Z,21.70
2022-07-25T20:20:06.528Z,21.80
2022-07-25T20:22:37.598Z,22.00
2022-07-25T20:25:06.879Z,22.20
2022-07-25T20:27:34.841Z,22.20
2022-07-25T20:30:03.934Z,22.30
2022-07-25T20:32:32.348Z,22.30
2022-07-25T20:35:00.412Z,22.40
2022-07-25T20:37:28.522Z,22.50
2022-07-25T20:39:59.695Z,22.50
2022-07-25T20:42:35.142Z,22.50
2022-07-25T20:45:03.111Z,22.50
2022-07-25T20:47:31.202Z,22.50
2022-07-25T20:49:59.278Z,22.40
2022-07-25T20:52:28.243Z,22.50
2022-07-25T20:54:57.725Z,22.40
2022-07-25T20:57:26.046Z,22.30
2022-07-25T20:59:54.164Z,22.30
2022-07-25T21:02:22.310Z,22.30
2022-07-25T21:04:50.487Z,22.20
2022-07-25T21:07:19.250Z,22.20
2022-07-25T21:09:47.502Z,22.20
2022-07-25T21:12:17.281Z,22.20
2022-07-25T21:14:45.389Z,22.10
2022-07-25T21:17:13.619Z,22.00
2022-07-25T21:19:41.610Z,22.10
2022-07-25T21:22:09.857Z,22.00
2022-07-25T21:24:38.168Z,22.00
2022-07-25T21:27:06.384Z,21.80
2022-07-25T21:29:36.129Z,21.90
2022-07-25T21:32:04.976Z,21.90
2022-07-25T21:34:33.240Z,21.80
2022-07-25T21:37:01.772Z,21.70
2022-07-25T21:39:30.145Z,21.60
2022-07-25T21:41:58.639Z,21.50
2022-07-25T21:44:27.039Z,21.40
2022-07-25T21:46:56.607Z,21.40
2022-07-25T21:49:42.709Z,21.20
2022-07-25T21:52:13.600Z,21.10
2022-07-25T21:54:42.313Z,21.00
2022-07-25T21:57:13.350Z,20.90
2022-07-25T21:59:42.383Z,20.80
2022-07-25T22:02:12.461Z,20.70
2022-07-25T22:04:42.134Z,20.60
2022-07-25T22:07:10.554Z,20.60
2022-07-25T22:09:38.926Z,20.50
2022-07-25T22:12:08.258Z,20.40
2022-07-25T22:14:37.684Z,20.40
2022-07-25T22:17:06.044Z,20.40
2022-07-25T22:19:35.852Z,20.30
2022-07-25T22:22:05.957Z,20.30
2022-07-25T22:24:34.742Z,20.30
2022-07-25T22:27:03.098Z,20.20
2022-07-25T22:29:31.300Z,20.20
2022-07-25T22:32:00.112Z,20.20
2022-07-25T22:34:28.758Z,20.20
2022-07-25T22:36:58.465Z,20.20
2022-07-25T22:39:26.890Z,20.10
2022-07-25T22:41:57.169Z,20.10
2022-07-25T22:44:25.489Z,20.10
2022-07-25T22:46:53.746Z,20.00
2022-07-25T22:49:23.313Z,20.00
2022-07-25T22:51:51.734Z,20.00
2022-07-25T22:54:21.528Z,20.00
2022-07-25T22:56:49.842Z,20.00
2022-07-25T22:59:20.114Z,19.90
2022-07-25T23:01:48.317Z,19.90
2022-07-25T23:04:16.629Z,19.90
2022-07-25T23:06:45.109Z,19.90
2022-07-25T23:09:14.506Z,19.80
2022-07-25T23:11:44.166Z,19.80
2022-07-25T23:14:12.802Z,19.80
2022-07-25T23:16:41.278Z,19.80
2022-07-25T23:19:10.012Z,19.70
2022-07-25T23:21:39.067Z,19.70
2022-07-25T23:24:07.852Z,19.70
2022-07-25T23:26:36.120Z,19.60
2022-07-25T23:29:06.074Z,19.60
2022-07-25T23:31:40.565Z,19.60
2022-07-25T23:34:39.423Z,19.60
2022-07-25T23:37:40.124Z,19.60
2022-07-25T23:40:44.679Z,19.50
2022-07-25T23:43:54.417Z,19.50
2022-07-25T23:46:09.084Z,19.40
2022-07-25T23:48:37.113Z,19.40
2022-07-25T23:51:06.724Z,19.30
2022-07-25T23:53:34.861Z,19.20
2022-07-25T23:56:03.001Z,19.20
2022-07-25T23:58:31.001Z,19.10
